sensor_id;sensor_type;location;lat;lon;timestamp;temperature;humidity
46494;DHT22;53214;49.314;6.280;2022-09-02T00:01:13;17.70;90.20
46494;DHT22;53214;49.314;6.280;2022-09-02T00:03:40;17.70;90.30
46494;DHT22;53214;49.314;6.280;2022-09-02T00:06:08;17.60;90.40
46494;DHT22;53214;49.314;6.280;2022-09-02T00:08:35;17.60;90.50
46494;DHT22;53214;49.314;6.280;2022-09-02T00:11:02;17.60;90.60
46494;DHT22;53214;49.314;6.280;2022-09-02T00:13:36;17.60;90.70
46494;DHT22;53214;49.314;6.280;2022-09-02T00:16:04;17.50;91.00
46494;DHT22;53214;49.314;6.280;2022-09-02T00:18:32;17.60;90.90
46494;DHT22;53214;49.314;6.280;2022-09-02T00:21:00;17.50;90.90
46494;DHT22;53214;49.314;6.280;2022-09-02T00:23:28;17.50;91.00
46494;DHT22;53214;49.314;6.280;2022-09-02T00:25:55;17.50;91.00
46494;DHT22;53214;49.314;6.280;2022-09-02T00:28:21;17.60;91.10
46494;DHT22;53214;49.314;6.280;2022-09-02T00:30:49;17.60;91.10
46494;DHT22;53214;49.314;6.280;2022-09-02T00:33:16;17.50;91.10
46494;DHT22;53214;49.314;6.280;2022-09-02T00:35:43;17.60;91.20
46494;DHT22;53214;49.314;6.280;2022-09-02T00:38:11;17.60;91.30
46494;DHT22;53214;49.314;6.280;2022-09-02T00:40:39;17.50;91.30
46494;DHT22;53214;49.314;6.280;2022-09-02T00:43:09;17.50;91.40
46494;DHT22;53214;49.314;6.280;2022-09-02T00:45:37;17.50;91.50
46494;DHT22;53214;49.314;6.280;2022-09-02T00:48:05;17.50;91.50
46494;DHT22;53214;49.314;6.280;2022-09-02T00:50:35;17.40;91.60
46494;DHT22;53214;49.314;6.280;2022-09-02T00:53:08;17.40;91.70
46494;DHT22;53214;49.314;6.280;2022-09-02T00:55:43;17.40;91.80
46494;DHT22;53214;49.314;6.280;2022-09-02T00:58:24;17.30;91.90
46494;DHT22;53214;49.314;6.280;2022-09-02T01:00:54;17.30;91.90
46494;DHT22;53214;49.314;6.280;2022-09-02T01:03:25;17.20;91.90
46494;DHT22;53214;49.314;6.280;2022-09-02T01:05:54;17.20;92.10
46494;DHT22;53214;49.314;6.280;2022-09-02T01:08:25;17.20;92.10
46494;DHT22;53214;49.314;6.280;2022-09-02T01:10:53;17.10;92.20
46494;DHT22;53214;49.314;6.280;2022-09-02T01:13:24;17.10;92.30
46494;DHT22;53214;49.314;6.280;2022-09-02T01:16:08;17.10;92.40
46494;DHT22;53214;49.314;6.280;2022-09-02T01:18:36;17.10;92.50
46494;DHT22;53214;49.314;6.280;2022-09-02T01:21:04;17.10;92.50
46494;DHT22;53214;49.314;6.280;2022-09-02T01:23:31;17.10;92.60
46494;DHT22;53214;49.314;6.280;2022-09-02T01:26:01;17.00;92.70
46494;DHT22;53214;49.314;6.280;2022-09-02T01:28:28;17.10;92.70
46494;DHT22;53214;49.314;6.280;2022-09-02T01:30:54;17.10;92.80
46494;DHT22;53214;49.314;6.280;2022-09-02T01:33:23;17.10;92.80
46494;DHT22;53214;49.314;6.280;2022-09-02T01:35:52;17.10;92.90
46494;DHT22;53214;49.314;6.280;2022-09-02T01:38:20;17.00;92.90
46494;DHT22;53214;49.314;6.280;2022-09-02T01:40:48;17.00;92.90
46494;DHT22;53214;49.314;6.280;2022-09-02T01:43:21;17.00;93.00
46494;DHT22;53214;49.314;6.280;2022-09-02T01:45:51;17.00;93.10
46494;DHT22;53214;49.314;6.280;2022-09-02T01:48:19;17.00;93.10
46494;DHT22;53214;49.314;6.280;2022-09-02T01:50:59;17.00;93.10
46494;DHT22;53214;49.314;6.280;2022-09-02T01:53:27;16.90;93.20
46494;DHT22;53214;49.314;6.280;2022-09-02T01:55:55;17.00;93.20
46494;DHT22;53214;49.314;6.280;2022-09-02T01:58:22;16.90;93.20
46494;DHT22;53214;49.314;6.280;2022-09-02T02:00:49;16.90;93.30
46494;DHT22;53214;49.314;6.280;2022-09-02T02:03:16;16.80;93.30
46494;DHT22;53214;49.314;6.280;2022-09-02T02:05:43;16.90;93.30
46494;DHT22;53214;49.314;6.280;2022-09-02T02:08:10;16.80;93.30
46494;DHT22;53214;49.314;6.280;2022-09-02T02:10:40;16.90;93.40
46494;DHT22;53214;49.314;6.280;2022-09-02T02:13:08;16.80;93.40
46494;DHT22;53214;49.314;6.280;2022-09-02T02:15:40;16.80;93.40
46494;DHT22;53214;49.314;6.280;2022-09-02T02:18:08;16.80;93.50
46494;DHT22;53214;49.314;6.280;2022-09-02T02:20:36;16.70;93.50
46494;DHT22;53214;49.314;6.280;2022-09-02T02:23:04;16.70;93.60
46494;DHT22;53214;49.314;6.280;2022-09-02T02:25:31;16.70;93.60
46494;DHT22;53214;49.314;6.280;2022-09-02T02:27:58;16.70;93.60
46494;DHT22;53214;49.314;6.280;2022-09-02T02:30:28;16.70;93.60
46494;DHT22;53214;49.314;6.280;2022-09-02T02:32:55;16.70;93.60
46494;DHT22;53214;49.314;6.280;2022-09-02T02:35:22;16.70;93.60
46494;DHT22;53214;49.314;6.280;2022-09-02T02:37:49;16.70;93.60
46494;DHT22;53214;49.314;6.280;2022-09-02T02:40:20;16.60;93.60
46494;DHT22;53214;49.314;6.280;2022-09-02T02:42:48;16.60;93.70
46494;DHT22;53214;49.314;6.280;2022-09-02T02:45:15;16.60;93.70
46494;DHT22;53214;49.314;6.280;2022-09-02T02:47:42;16.60;93.80
46494;DHT22;53214;49.314;6.280;2022-09-02T02:50:14;16.50;93.80
46494;DHT22;53214;49.314;6.280;2022-09-02T02:52:42;16.50;93.90
46494;DHT22;53214;49.314;6.280;2022-09-02T02:55:10;16.50;93.90
46494;DHT22;53214;49.314;6.280;2022-09-02T02:57:39;16.50;93.90
46494;DHT22;53214;49.314;6.280;2022-09-02T03:00:15;16.40;93.90
46494;DHT22;53214;49.314;6.280;2022-09-02T03:02:42;16.40;94.10
46494;DHT22;53214;49.314;6.280;2022-09-02T03:05:11;16.40;94.00
46494;DHT22;53214;49.314;6.280;2022-09-02T03:07:39;16.40;94.00
46494;DHT22;53214;49.314;6.280;2022-09-02T03:10:08;16.30;94.10
46494;DHT22;53214;49.314;6.280;2022-09-02T03:12:36;16.30;94.20
46494;DHT22;53214;49.314;6.280;2022-09-02T03:15:06;16.30;94.20
46494;DHT22;53214;49.314;6.280;2022-09-02T03:17:33;16.30;94.10
46494;DHT22;53214;49.314;6.280;2022-09-02T03:20:00;16.30;94.10
46494;DHT22;53214;49.314;6.280;2022-09-02T03:22:28;16.30;94.10
46494;DHT22;53214;49.314;6.280;2022-09-02T03:24:55;16.20;94.10
46494;DHT22;53214;49.314;6.280;2022-09-02T03:27:22;16.20;94.20
46494;DHT22;53214;49.314;6.280;2022-09-02T03:29:49;16.10;94.20
46494;DHT22;53214;49.314;6.280;2022-09-02T03:32:16;16.10;94.20
46494;DHT22;53214;49.314;6.280;2022-09-02T03:34:43;16.10;94.40
46494;DHT22;53214;49.314;6.280;2022-09-02T03:37:10;16.00;94.30
46494;DHT22;53214;49.314;6.280;2022-09-02T03:39:37;16.00;94.30
46494;DHT22;53214;49.314;6.280;2022-09-02T03:42:06;15.90;94.50
46494;DHT22;53214;49.314;6.280;2022-09-02T03:44:45;15.90;94.50
46494;DHT22;53214;49.314;6.280;2022-09-02T03:47:12;15.80;94.50
46494;DHT22;53214;49.314;6.280;2022-09-02T03:49:40;15.80;94.60
46494;DHT22;53214;49.314;6.280;2022-09-02T03:52:09;15.70;94.70
46494;DHT22;53214;49.314;6.280;2022-09-02T03:54:36;15.70;94.80
46494;DHT22;53214;49.314;6.280;2022-09-02T03:57:03;15.70;94.90
46494;DHT22;53214;49.314;6.280;2022-09-02T03:59:31;15.60;95.00
46494;DHT22;53214;49.314;6.280;2022-09-02T04:02:00;15.50;95.10
46494;DHT22;53214;49.314;6.280;2022-09-02T04:04:29;15.50;95.20
46494;DHT22;53214;49.314;6.280;2022-09-02T04:06:56;15.50;95.20
46494;DHT22;53214;49.314;6.280;2022-09-02T04:09:24;15.40;95.20
46494;DHT22;53214;49.314;6.280;2022-09-02T04:11:51;15.40;95.40
46494;DHT22;53214;49.314;6.280;2022-09-02T04:14:18;15.40;95.30
46494;DHT22;53214;49.314;6.280;2022-09-02T04:16:45;15.30;95.40
46494;DHT22;53214;49.314;6.280;2022-09-02T04:19:12;15.30;95.40
46494;DHT22;53214;49.314;6.280;2022-09-02T04:21:40;15.30;95.30
46494;DHT22;53214;49.314;6.280;2022-09-02T04:24:09;15.20;95.30
46494;DHT22;53214;49.314;6.280;2022-09-02T04:26:37;15.10;95.50
46494;DHT22;53214;49.314;6.280;2022-09-02T04:29:11;15.10;95.70
46494;DHT22;53214;49.314;6.280;2022-09-02T04:31:38;15.00;96.20
46494;DHT22;53214;49.314;6.280;2022-09-02T04:34:05;14.90;96.20
46494;DHT22;53214;49.314;6.280;2022-09-02T04:36:33;14.90;96.20
46494;DHT22;53214;49.314;6.280;2022-09-02T04:39:00;14.90;96.30
46494;DHT22;53214;49.314;6.280;2022-09-02T04:41:29;14.90;96.50
46494;DHT22;53214;49.314;6.280;2022-09-02T04:43:58;14.90;96.50
46494;DHT22;53214;49.314;6.280;2022-09-02T04:46:26;14.80;96.40
46494;DHT22;53214;49.314;6.280;2022-09-02T04:49:01;14.80;96.60
46494;DHT22;53214;49.314;6.280;2022-09-02T04:51:29;14.80;96.70
46494;DHT22;53214;49.314;6.280;2022-09-02T04:53:56;14.80;96.60
46494;DHT22;53214;49.314;6.280;2022-09-02T04:56:25;14.90;96.40
46494;DHT22;53214;49.314;6.280;2022-09-02T04:58:54;14.80;96.60
46494;DHT22;53214;49.314;6.280;2022-09-02T05:01:24;14.80;96.60
46494;DHT22;53214;49.314;6.280;2022-09-02T05:03:52;14.90;96.70
46494;DHT22;53214;49.314;6.280;2022-09-02T05:06:23;14.80;96.60
46494;DHT22;53214;49.314;6.280;2022-09-02T05:08:55;14.80;96.90
46494;DHT22;53214;49.314;6.280;2022-09-02T05:11:25;14.80;97.00
46494;DHT22;53214;49.314;6.280;2022-09-02T05:13:57;14.80;97.00
46494;DHT22;53214;49.314;6.280;2022-09-02T05:16:28;14.80;96.90
46494;DHT22;53214;49.314;6.280;2022-09-02T05:18:56;14.80;96.90
46494;DHT22;53214;49.314;6.280;2022-09-02T05:21:23;14.80;97.00
46494;DHT22;53214;49.314;6.280;2022-09-02T05:23:51;14.80;96.90
46494;DHT22;53214;49.314;6.280;2022-09-02T05:26:20;14.90;96.90
46494;DHT22;53214;49.314;6.280;2022-09-02T05:28:47;14.90;96.90
46494;DHT22;53214;49.314;6.280;2022-09-02T05:31:17;15.00;96.80
46494;DHT22;53214;49.314;6.280;2022-09-02T05:33:45;15.00;96.60
46494;DHT22;53214;49.314;6.280;2022-09-02T05:36:15;15.10;96.60
46494;DHT22;53214;49.314;6.280;2022-09-02T05:38:43;15.10;96.60
46494;DHT22;53214;49.314;6.280;2022-09-02T05:41:13;15.30;96.50
46494;DHT22;53214;49.314;6.280;2022-09-02T05:43:42;15.40;96.30
46494;DHT22;53214;49.314;6.280;2022-09-02T05:46:12;15.60;96.10
46494;DHT22;53214;49.314;6.280;2022-09-02T05:48:40;15.80;95.80
46494;DHT22;53214;49.314;6.280;2022-09-02T05:51:25;16.00;95.50
46494;DHT22;53214;49.314;6.280;2022-09-02T05:53:53;16.20;95.20
46494;DHT22;53214;49.314;6.280;2022-09-02T05:56:21;16.30;94.90
46494;DHT22;53214;49.314;6.280;2022-09-02T05:58:49;16.50;94.50
46494;DHT22;53214;49.314;6.280;2022-09-02T06:01:17;16.70;94.20
46494;DHT22;53214;49.314;6.280;2022-09-02T06:03:45;16.90;94.00
46494;DHT22;53214;49.314;6.280;2022-09-02T06:06:12;17.10;93.60
46494;DHT22;53214;49.314;6.280;2022-09-02T06:08:39;17.20;93.30
46494;DHT22;53214;49.314;6.280;2022-09-02T06:11:08;17.40;93.10
46494;DHT22;53214;49.314;6.280;2022-09-02T06:13:38;17.50;92.80
46494;DHT22;53214;49.314;6.280;2022-09-02T06:16:06;17.70;92.50
46494;DHT22;53214;49.314;6.280;2022-09-02T06:18:38;17.80;92.00
46494;DHT22;53214;49.314;6.280;2022-09-02T06:21:05;17.90;91.80
46494;DHT22;53214;49.314;6.280;2022-09-02T06:23:35;18.00;91.40
46494;DHT22;53214;49.314;6.280;2022-09-02T06:26:08;18.20;91.20
46494;DHT22;53214;49.314;6.280;2022-09-02T06:28:35;18.40;90.90
46494;DHT22;53214;49.314;6.280;2022-09-02T06:31:13;18.70;90.50
46494;DHT22;53214;49.314;6.280;2022-09-02T06:33:42;18.90;89.50
46494;DHT22;53214;49.314;6.280;2022-09-02T06:36:11;18.90;89.30
46494;DHT22;53214;49.314;6.280;2022-09-02T06:38:41;19.00;88.50
46494;DHT22;53214;49.314;6.280;2022-09-02T06:41:13;19.00;88.30
46494;DHT22;53214;49.314;6.280;2022-09-02T06:43:41;19.10;87.70
46494;DHT22;53214;49.314;6.280;2022-09-02T06:46:15;19.20;87.40
46494;DHT22;53214;49.314;6.280;2022-09-02T06:48:42;19.50;86.60
46494;DHT22;53214;49.314;6.280;2022-09-02T06:51:16;19.60;85.80
46494;DHT22;53214;49.314;6.280;2022-09-02T06:53:43;19.70;85.70
46494;DHT22;53214;49.314;6.280;2022-09-02T06:56:11;19.90;84.90
46494;DHT22;53214;49.314;6.280;2022-09-02T06:58:38;20.10;83.70
46494;DHT22;53214;49.314;6.280;2022-09-02T07:01:05;20.30;82.40
46494;DHT22;53214;49.314;6.280;2022-09-02T07:03:33;20.40;82.70
46494;DHT22;53214;49.314;6.280;2022-09-02T07:06:19;20.50;81.70
46494;DHT22;53214;49.314;6.280;2022-09-02T07:08:46;20.60;80.80
46494;DHT22;53214;49.314;6.280;2022-09-02T07:11:20;20.60;80.90
46494;DHT22;53214;49.314;6.280;2022-09-02T07:13:48;20.70;79.60
46494;DHT22;53214;49.314;6.280;2022-09-02T07:16:15;20.90;79.70
46494;DHT22;53214;49.314;6.280;2022-09-02T07:18:52;20.80;79.40
46494;DHT22;53214;49.314;6.280;2022-09-02T07:21:19;21.10;78.80
46494;DHT22;53214;49.314;6.280;2022-09-02T07:23:46;21.30;78.00
46494;DHT22;53214;49.314;6.280;2022-09-02T07:26:15;21.50;77.30
46494;DHT22;53214;49.314;6.280;2022-09-02T07:28:42;22.00;76.60
46494;DHT22;53214;49.314;6.280;2022-09-02T07:31:10;22.50;75.70
46494;DHT22;53214;49.314;6.280;2022-09-02T07:33:38;22.80;73.20
46494;DHT22;53214;49.314;6.280;2022-09-02T07:36:06;22.80;72.80
46494;DHT22;53214;49.314;6.280;2022-09-02T07:38:38;23.00;72.40
46494;DHT22;53214;49.314;6.280;2022-09-02T07:41:07;23.20;71.50
46494;DHT22;53214;49.314;6.280;2022-09-02T07:43:36;23.60;71.10
46494;DHT22;53214;49.314;6.280;2022-09-02T07:46:04;23.90;69.10
46494;DHT22;53214;49.314;6.280;2022-09-02T07:48:32;23.90;68.50
46494;DHT22;53214;49.314;6.280;2022-09-02T07:51:00;24.10;68.30
46494;DHT22;53214;49.314;6.280;2022-09-02T07:53:28;24.40;67.60
46494;DHT22;53214;49.314;6.280;2022-09-02T07:55:54;24.50;66.80
46494;DHT22;53214;49.314;6.280;2022-09-02T07:58:22;24.40;66.80
46494;DHT22;53214;49.314;6.280;2022-09-02T08:00:49;24.60;65.90
46494;DHT22;53214;49.314;6.280;2022-09-02T08:03:17;24.60;65.40
46494;DHT22;53214;49.314;6.280;2022-09-02T08:05:46;24.90;65.20
46494;DHT22;53214;49.314;6.280;2022-09-02T08:08:15;25.20;64.90
46494;DHT22;53214;49.314;6.280;2022-09-02T08:10:50;25.50;63.50
46494;DHT22;53214;49.314;6.280;2022-09-02T08:13:17;25.50;63.00
46494;DHT22;53214;49.314;6.280;2022-09-02T08:15:45;25.60;62.80
46494;DHT22;53214;49.314;6.280;2022-09-02T08:18:17;25.80;62.20
46494;DHT22;53214;49.314;6.280;2022-09-02T08:20:48;26.00;62.30
46494;DHT22;53214;49.314;6.280;2022-09-02T08:23:15;26.60;61.40
46494;DHT22;53214;49.314;6.280;2022-09-02T08:26:02;26.80;60.30
46494;DHT22;53214;49.314;6.280;2022-09-02T08:28:31;26.80;60.50
46494;DHT22;53214;49.314;6.280;2022-09-02T08:30:59;27.00;59.60
46494;DHT22;53214;49.314;6.280;2022-09-02T08:33:29;27.20;59.20
46494;DHT22;53214;49.314;6.280;2022-09-02T08:36:09;27.30;58.70
46494;DHT22;53214;49.314;6.280;2022-09-02T08:38:37;27.60;58.40
46494;DHT22;53214;49.314;6.280;2022-09-02T08:41:22;27.70;58.20
46494;DHT22;53214;49.314;6.280;2022-09-02T08:43:52;28.10;56.80
46494;DHT22;53214;49.314;6.280;2022-09-02T08:46:21;28.30;56.30
46494;DHT22;53214;49.314;6.280;2022-09-02T08:48:56;28.40;56.10
46494;DHT22;53214;49.314;6.280;2022-09-02T08:56:58;28.60;55.00
46494;DHT22;53214;49.314;6.280;2022-09-02T08:59:27;28.70;55.20
46494;DHT22;53214;49.314;6.280;2022-09-02T09:02:09;28.50;54.60
46494;DHT22;53214;49.314;6.280;2022-09-02T09:13:18;29.20;53.30
46494;DHT22;53214;49.314;6.280;2022-09-02T09:16:00;29.90;52.70
46494;DHT22;53214;49.314;6.280;2022-09-02T09:18:45;30.60;51.40
46494;DHT22;53214;49.314;6.280;2022-09-02T09:21:15;31.20;50.00
46494;DHT22;53214;49.314;6.280;2022-09-02T09:23:42;31.00;49.20
46494;DHT22;53214;49.314;6.280;2022-09-02T09:26:21;30.70;48.60
46494;DHT22;53214;49.314;6.280;2022-09-02T09:28:53;30.70;50.70
46494;DHT22;53214;49.314;6.280;2022-09-02T09:31:26;30.40;51.10
46494;DHT22;53214;49.314;6.280;2022-09-02T09:41:47;30.40;48.20
46494;DHT22;53214;49.314;6.280;2022-09-02T09:47:12;31.90;47.10
46494;DHT22;53214;49.314;6.280;2022-09-02T09:49:44;31.80;44.50
46494;DHT22;53214;49.314;6.280;2022-09-02T09:52:25;31.20;44.40
46494;DHT22;53214;49.314;6.280;2022-09-02T09:55:16;31.70;44.30
46494;DHT22;53214;49.314;6.280;2022-09-02T09:57:50;31.20;44.70
46494;DHT22;53214;49.314;6.280;2022-09-02T10:00:30;31.00;44.20
46494;DHT22;53214;49.314;6.280;2022-09-02T10:03:04;31.70;44.40
46494;DHT22;53214;49.314;6.280;2022-09-02T10:05:35;32.80;44.10
46494;DHT22;53214;49.314;6.280;2022-09-02T10:10:55;33.90;41.90
46494;DHT22;53214;49.314;6.280;2022-09-02T10:13:28;33.20;41.70
46494;DHT22;53214;49.314;6.280;2022-09-02T10:18:45;33.40;41.50
46494;DHT22;53214;49.314;6.280;2022-09-02T10:26:56;32.70;40.40
46494;DHT22;53214;49.314;6.280;2022-09-02T10:29:42;33.30;41.00
46494;DHT22;53214;49.314;6.280;2022-09-02T10:35:33;34.10;39.60
46494;DHT22;53214;49.314;6.280;2022-09-02T10:38:23;34.30;39.40
46494;DHT22;53214;49.314;6.280;2022-09-02T10:41:06;33.60;39.80
46494;DHT22;53214;49.314;6.280;2022-09-02T10:43:52;32.90;40.10
46494;DHT22;53214;49.314;6.280;2022-09-02T10:46:24;32.80;40.60
46494;DHT22;53214;49.314;6.280;2022-09-02T10:51:44;34.20;39.00
46494;DHT22;53214;49.314;6.280;2022-09-02T10:57:16;34.50;38.60
46494;DHT22;53214;49.314;6.280;2022-09-02T10:59:55;34.70;38.00
46494;DHT22;53214;49.314;6.280;2022-09-02T11:02:40;33.60;38.70
46494;DHT22;53214;49.314;6.280;2022-09-02T11:05:42;33.20;38.60
46494;DHT22;53214;49.314;6.280;2022-09-02T11:08:33;33.40;39.10
46494;DHT22;53214;49.314;6.280;2022-09-02T11:11:18;33.60;38.70
46494;DHT22;53214;49.314;6.280;2022-09-02T11:13:59;33.70;38.70
46494;DHT22;53214;49.314;6.280;2022-09-02T11:16:30;34.90;38.10
46494;DHT22;53214;49.314;6.280;2022-09-02T11:19:07;35.40;36.80
46494;DHT22;53214;49.314;6.280;2022-09-02T11:24:51;35.20;36.80
46494;DHT22;53214;49.314;6.280;2022-09-02T11:28:02;33.90;36.40
46494;DHT22;53214;49.314;6.280;2022-09-02T11:30:22;33.10;37.00
46494;DHT22;53214;49.314;6.280;2022-09-02T11:35:43;34.70;36.50
46494;DHT22;53214;49.314;6.280;2022-09-02T11:50:31;35.70;35.20
46494;DHT22;53214;49.314;6.280;2022-09-02T11:53:25;36.30;34.90
46494;DHT22;53214;49.314;6.280;2022-09-02T11:58:32;36.60;35.50
46494;DHT22;53214;49.314;6.280;2022-09-02T12:03:31;37.30;33.90
46494;DHT22;53214;49.314;6.280;2022-09-02T12:06:20;37.70;34.10
46494;DHT22;53214;49.314;6.280;2022-09-02T12:14:10;36.30;33.60
46494;DHT22;53214;49.314;6.280;2022-09-02T12:16:44;35.90;34.70
46494;DHT22;53214;49.314;6.280;2022-09-02T12:19:41;36.60;34.20
46494;DHT22;53214;49.314;6.280;2022-09-02T12:24:53;36.80;33.40
46494;DHT22;53214;49.314;6.280;2022-09-02T12:27:29;36.40;34.00
46494;DHT22;53214;49.314;6.280;2022-09-02T12:29:58;37.10;33.30
46494;DHT22;53214;49.314;6.280;2022-09-02T12:35:31;37.90;32.60
46494;DHT22;53214;49.314;6.280;2022-09-02T12:40:45;38.20;32.20
46494;DHT22;53214;49.314;6.280;2022-09-02T12:43:30;38.70;32.10
46494;DHT22;53214;49.314;6.280;2022-09-02T12:52:11;38.40;34.20
46494;DHT22;53214;49.314;6.280;2022-09-02T12:55:15;38.30;32.30
46494;DHT22;53214;49.314;6.280;2022-09-02T12:57:46;38.90;31.80
46494;DHT22;53214;49.314;6.280;2022-09-02T13:00:23;38.40;31.50
46494;DHT22;53214;49.314;6.280;2022-09-02T13:03:22;38.50;31.60
46494;DHT22;53214;49.314;6.280;2022-09-02T13:28:06;36.60;33.90
46494;DHT22;53214;49.314;6.280;2022-09-02T13:30:55;35.30;34.00
46494;DHT22;53214;49.314;6.280;2022-09-02T13:33:26;34.90;33.40
46494;DHT22;53214;49.314;6.280;2022-09-02T13:35:55;35.90;33.20
46494;DHT22;53214;49.314;6.280;2022-09-02T13:38:26;36.20;32.70
46494;DHT22;53214;49.314;6.280;2022-09-02T13:40:54;36.60;33.20
46494;DHT22;53214;49.314;6.280;2022-09-02T13:43:23;35.40;36.10
46494;DHT22;53214;49.314;6.280;2022-09-02T13:45:54;34.60;33.60
46494;DHT22;53214;49.314;6.280;2022-09-02T13:48:27;34.80;33.70
46494;DHT22;53214;49.314;6.280;2022-09-02T13:50:55;35.60;35.30
46494;DHT22;53214;49.314;6.280;2022-09-02T13:53:38;35.10;34.80
46494;DHT22;53214;49.314;6.280;2022-09-02T13:56:27;34.50;38.00
